Time;durP1;ratioP1;P1;durP2;ratioP2;P2;SDS_P1;SDS_P2;PMS_P1;PMS_P2;Temp;Humidity;BMP_temperature;BMP_pressure;BME280_temperature;BME280_humidity;BME280_pressure;Samples;Min_cycle;Max_cycle;Signal;HPM_P1;HPM_P2
2023/03/27 00:01:19;;;;;;;5.55;2.72;;;;;;;4.93;100.00;101359.03;4921229;29;20499;-86
2023/03/27 00:03:48;;;;;;;3.85;1.52;;;;;;;4.91;100.00;101358.53;4905514;29;20038;-86
2023/03/27 00:06:16;;;;;;;11.27;2.53;;;;;;;4.86;100.00;101367.03;4910660;29;20036;-86
2023/03/27 00:08:43;;;;;;;9.43;1.90;;;;;;;4.86;100.00;101367.03;4918965;29;20039;-86
2023/03/27 00:11:08;;;;;;;4.18;1.98;;;;;;;4.89;100.00;101383.00;4905249;29;20040;-86
2023/03/27 00:13:35;;;;;;;8.38;2.17;;;;;;;4.98;100.00;101386.63;4916170;29;20042;-87
2023/03/27 00:16:01;;;;;;;7.15;2.80;;;;;;;4.47;100.00;101391.81;4914812;29;20040;-86
2023/03/27 00:18:28;;;;;;;9.35;1.88;;;;;;;4.42;100.00;101377.28;4898705;29;20370;-86
2023/03/27 00:20:57;;;;;;;4.85;1.70;;;;;;;4.31;100.00;101395.38;4917312;29;20471;-86
2023/03/27 00:23:22;;;;;;;6.82;2.03;;;;;;;4.54;100.00;101388.56;4919836;29;20834;-86
2023/03/27 00:25:48;;;;;;;4.20;1.70;;;;;;;4.56;100.00;101391.81;4899214;29;20058;-86
2023/03/27 00:28:15;;;;;;;11.95;2.95;;;;;;;4.00;100.00;101379.63;4908521;29;20032;-86
2023/03/27 00:30:41;;;;;;;9.35;2.03;;;;;;;4.47;100.00;101388.22;4922600;29;20417;-86
2023/03/27 00:33:10;;;;;;;9.20;1.70;;;;;;;4.15;100.00;101387.50;4907135;29;20027;-86
2023/03/27 00:35:35;;;;;;;5.97;1.60;;;;;;;4.55;100.00;101395.72;4921526;29;20508;-86
2023/03/27 00:38:01;;;;;;;5.68;1.50;;;;;;;4.63;100.00;101392.13;4904620;29;20032;-86
2023/03/27 00:40:26;;;;;;;3.72;1.50;;;;;;;4.68;100.00;101393.97;4921089;29;20122;-86
2023/03/27 00:42:56;;;;;;;6.15;1.63;;;;;;;4.80;100.00;101384.97;4908393;29;20036;-86
2023/03/27 00:45:27;;;;;;;4.45;1.27;;;;;;;4.72;100.00;101399.66;4905383;29;20732;-86
2023/03/27 00:47:58;;;;;;;8.48;1.52;;;;;;;4.69;100.00;101403.91;4923380;29;20043;-86
2023/03/27 00:50:27;;;;;;;5.80;1.30;;;;;;;4.64;100.00;101395.75;4924227;29;20115;-86
2023/03/27 00:52:59;;;;;;;7.65;1.70;;;;;;;4.81;100.00;101409.63;4918875;29;20840;-86
2023/03/27 00:55:27;;;;;;;;;;;;;;;4.95;100.00;101414.19;4904533;29;20035;-86
2023/03/27 00:57:58;;;;;;;5.60;1.92;;;;;;;4.86;100.00;101411.41;4912105;29;20428;-86
2023/03/27 01:00:24;;;;;;;5.00;1.60;;;;;;;4.55;100.00;101422.63;4910674;29;20102;-86
2023/03/27 01:02:50;;;;;;;4.68;1.10;;;;;;;4.75;100.00;101418.44;4928950;29;20762;-86
2023/03/27 01:05:18;;;;;;;3.67;1.40;;;;;;;4.76;100.00;101418.09;4911936;29;20063;-86
2023/03/27 01:07:45;;;;;;;1.85;1.05;;;;;;;4.79;100.00;101419.41;4923556;29;20038;-86
2023/03/27 01:10:11;;;;;;;5.82;1.60;;;;;;;4.48;100.00;101429.47;4905398;29;20044;-86
2023/03/27 01:12:48;;;;;;;4.53;1.35;;;;;;;4.36;100.00;101437.59;4922563;29;20459;-86
2023/03/27 01:15:31;;;;;;;4.85;1.00;;;;;;;4.50;100.00;101429.16;4907307;29;20035;-87
2023/03/27 01:18:09;;;;;;;3.33;1.45;;;;;;;4.37;100.00;101435.66;4924464;29;20398;-86
2023/03/27 01:21:09;;;;;;;4.75;1.73;;;;;;;4.41;100.00;101431.09;4918210;29;20038;-86
2023/03/27 01:23:54;;;;;;;5.28;1.48;;;;;;;4.16;100.00;101439.00;4904852;29;20078;-86
2023/03/27 01:26:42;;;;;;;5.60;1.38;;;;;;;4.31;100.00;101443.28;4926364;29;20031;-86
2023/03/27 01:29:32;;;;;;;10.27;2.17;;;;;;;3.99;100.00;101438.94;4906263;29;20078;-86
2023/03/27 01:32:32;;;;;;;3.28;1.23;;;;;;;3.98;100.00;101449.19;4925511;29;21502;-86
2023/03/27 01:35:45;;;;;;;6.90;2.22;;;;;;;4.06;100.00;101450.38;4923834;29;20040;-86
2023/03/27 01:38:42;;;;;;;8.40;1.50;;;;;;;4.08;100.00;101448.91;4924580;29;20027;-86
2023/03/27 01:41:17;;;;;;;6.07;1.85;;;;;;;4.21;100.00;101455.47;4921744;29;20143;-86
2023/03/27 01:43:52;;;;;;;3.10;2.15;;;;;;;4.44;100.00;101469.25;4921378;29;20158;-87
2023/03/27 01:46:25;;;;;;;8.02;1.30;;;;;;;4.24;100.00;101465.94;4924340;29;20027;-86
2023/03/27 01:48:58;;;;;;;6.90;1.70;;;;;;;4.27;100.00;101473.59;4903536;29;20482;-87
2023/03/27 01:51:34;;;;;;;10.02;1.90;;;;;;;4.38;100.00;101473.31;4920515;29;20091;-86
2023/03/27 01:54:08;;;;;;;6.22;2.08;;;;;;;4.42;100.00;101474.28;4901969;29;20050;-86
2023/03/27 01:56:38;;;;;;;5.78;1.58;;;;;;;4.44;100.00;101472.84;4927661;29;20031;-86
2023/03/27 01:59:12;;;;;;;5.50;2.03;;;;;;;4.51;100.00;101477.91;4926230;29;20118;-86
2023/03/27 02:01:41;;;;;;;6.28;1.70;;;;;;;4.48;100.00;101479.38;4922670;29;20027;-86
2023/03/27 02:04:18;;;;;;;5.95;1.60;;;;;;;4.48;100.00;101481.34;4922689;29;20028;-86
2023/03/27 02:06:49;;;;;;;4.32;2.00;;;;;;;4.38;100.00;101484.38;4919113;29;20036;-86
2023/03/27 02:09:32;;;;;;;8.40;1.58;;;;;;;4.35;100.00;101485.06;4912208;29;20449;-86
2023/03/27 02:12:07;;;;;;;6.45;1.48;;;;;;;4.32;100.00;101486.47;4921111;29;20508;-87
2023/03/27 02:14:40;;;;;;;5.35;1.70;;;;;;;4.25;100.00;101486.94;4925781;29;20036;-86
2023/03/27 02:17:11;;;;;;;4.90;1.50;;;;;;;4.32;100.00;101483.72;4903749;29;20201;-87
2023/03/27 02:19:46;;;;;;;7.15;1.30;;;;;;;4.35;100.00;101494.16;4923107;29;20464;-86
2023/03/27 02:22:13;;;;;;;6.95;1.92;;;;;;;4.19;100.00;101488.22;4927901;29;20055;-86
2023/03/27 02:24:39;;;;;;;7.25;1.55;;;;;;;4.16;100.00;101486.09;4927059;29;20106;-86
2023/03/27 02:27:28;;;;;;;7.95;1.73;;;;;;;4.16;100.00;101493.63;4911633;29;20028;-86
2023/03/27 02:29:58;;;;;;;10.57;1.38;;;;;;;4.08;100.00;101504.31;4911951;29;20028;-87
2023/03/27 02:32:33;;;;;;;8.68;2.05;;;;;;;4.15;100.00;101508.59;4922437;29;20582;-87
2023/03/27 02:35:23;;;;;;;7.25;1.67;;;;;;;4.18;100.00;101497.69;4922004;29;20027;-87
2023/03/27 02:37:52;;;;;;;7.45;1.50;;;;;;;4.30;100.00;101507.34;4920263;29;20446;-87
2023/03/27 02:40:35;;;;;;;7.15;1.58;;;;;;;4.01;100.00;101514.25;4906637;29;20036;-87
2023/03/27 02:43:15;;;;;;;9.10;1.98;;;;;;;4.32;100.00;101516.16;4921384;29;20078;-86
2023/03/27 02:46:31;;;;;;;4.72;1.40;;;;;;;4.14;100.00;101521.63;4920987;29;20023;-87
2023/03/27 02:49:04;;;;;;;7.00;2.10;;;;;;;3.94;100.00;101527.72;4878929;29;20514;-87
2023/03/27 02:51:42;;;;;;;5.40;2.08;;;;;;;3.71;100.00;101530.50;4920840;29;20034;-87
2023/03/27 02:54:12;;;;;;;16.95;3.85;;;;;;;3.83;100.00;101527.16;4917986;29;20047;-87
2023/03/27 02:56:47;;;;;;;6.45;2.03;;;;;;;3.63;100.00;101534.84;4909078;29;20039;-87
2023/03/27 02:59:21;;;;;;;7.40;1.42;;;;;;;3.90;100.00;101535.84;4924675;29;20031;-87
2023/03/27 03:01:48;;;;;;;6.85;2.03;;;;;;;4.13;100.00;101533.84;4923194;29;20020;-87
2023/03/27 03:04:27;;;;;;;4.25;2.03;;;;;;;3.81;100.00;101543.28;4919145;29;20142;-87
2023/03/27 03:06:53;;;;;;;7.25;1.58;;;;;;;3.87;100.00;101553.09;4919048;29;20035;-86
2023/03/27 03:09:19;;;;;;;3.83;2.00;;;;;;;3.70;100.00;101553.78;4908044;29;20032;-86
2023/03/27 03:11:49;;;;;;;3.70;1.20;;;;;;;3.52;100.00;101557.53;4921762;29;20091;-86
2023/03/27 03:14:17;;;;;;;3.17;1.10;;;;;;;3.87;100.00;101558.63;4921640;29;20070;-87
2023/03/27 03:16:43;;;;;;;2.00;0.90;;;;;;;4.05;100.00;101565.09;4918220;29;20044;-86
2023/03/27 03:19:08;;;;;;;7.53;1.30;;;;;;;3.79;100.00;101564.91;4921312;29;20116;-86
2023/03/27 03:21:33;;;;;;;5.32;1.60;;;;;;;3.83;100.00;101558.44;4918925;29;20027;-86
2023/03/27 03:23:59;;;;;;;2.90;1.23;;;;;;;3.79;100.00;101548.31;4899707;29;20454;-86
2023/03/27 03:26:25;;;;;;;8.43;1.60;;;;;;;4.14;100.00;101571.50;4909680;29;20030;-87
2023/03/27 03:28:51;;;;;;;6.43;1.70;;;;;;;4.18;100.00;101563.38;4925504;29;20023;-87
2023/03/27 03:31:17;;;;;;;3.10;1.27;;;;;;;4.08;100.00;101568.03;4922834;29;20030;-86
2023/03/27 03:33:43;;;;;;;7.32;1.27;;;;;;;4.08;100.00;101575.53;4909746;29;20059;-87
2023/03/27 03:36:09;;;;;;;5.78;1.38;;;;;;;3.79;100.00;101578.75;4908655;29;20508;-87
2023/03/27 03:38:34;;;;;;;11.13;1.83;;;;;;;3.78;100.00;101577.13;4908870;29;20469;-86
2023/03/27 03:41:01;;;;;;;4.43;1.08;;;;;;;4.11;100.00;101591.53;4920411;29;20042;-87
2023/03/27 03:43:28;;;;;;;11.38;2.20;;;;;;;4.13;100.00;101588.44;4926633;29;20110;-87
2023/03/27 03:45:54;;;;;;;4.00;1.35;;;;;;;4.26;100.00;101607.78;4915083;29;20548;-87
2023/03/27 03:48:20;;;;;;;8.98;1.52;;;;;;;4.04;100.00;101621.63;4925926;29;20027;-86
2023/03/27 03:50:46;;;;;;;2.50;1.17;;;;;;;3.87;100.00;101620.38;4921514;29;20514;-86
2023/03/27 03:53:13;;;;;;;6.43;1.88;;;;;;;3.90;100.00;101626.41;4903478;29;20118;-86
2023/03/27 03:55:38;;;;;;;7.63;1.45;;;;;;;3.97;100.00;101630.38;4923195;29;20039;-86
2023/03/27 03:58:05;;;;;;;7.85;1.60;;;;;;;3.42;100.00;101625.03;4907426;29;20036;-87
2023/03/27 04:00:36;;;;;;;3.65;1.33;;;;;;;3.70;100.00;101608.34;4921973;29;20126;-87
2023/03/27 04:03:03;;;;;;;5.37;1.37;;;;;;;3.72;100.00;101612.44;4925776;29;20509;-86
2023/03/27 04:05:28;;;;;;;3.85;1.23;;;;;;;3.66;100.00;101624.75;4908832;29;20122;-86
2023/03/27 04:07:54;;;;;;;6.20;2.17;;;;;;;3.66;100.00;101617.25;4922890;29;20031;-86
2023/03/27 04:10:19;;;;;;;3.38;1.40;;;;;;;3.67;100.00;101637.50;4905872;29;20051;-87
2023/03/27 04:12:46;;;;;;;5.70;1.85;;;;;;;3.79;100.00;101629.41;4916724;29;20038;-86
2023/03/27 04:15:11;;;;;;;4.15;1.60;;;;;;;3.79;100.00;101623.88;4906010;29;20043;-86
2023/03/27 04:17:38;;;;;;;2.78;1.20;;;;;;;3.90;100.00;101630.03;4920613;29;20042;-87
2023/03/27 04:20:05;;;;;;;4.38;1.25;;;;;;;4.05;100.00;101639.91;4922851;29;20031;-86
2023/03/27 04:22:36;;;;;;;6.68;1.48;;;;;;;4.07;100.00;101632.09;4927717;29;20035;-86
2023/03/27 04:25:05;;;;;;;7.68;1.92;;;;;;;3.96;100.00;101645.34;4907152;29;20083;-86
2023/03/27 04:27:31;;;;;;;7.50;1.70;;;;;;;4.01;100.00;101633.34;4919752;29;20410;-86
2023/03/27 04:29:56;;;;;;;5.28;1.52;;;;;;;4.05;100.00;101637.13;4914129;29;20036;-86
2023/03/27 04:32:25;;;;;;;4.97;1.30;;;;;;;3.95;100.00;101637.38;4909460;29;20028;-87
2023/03/27 04:34:50;;;;;;;6.50;1.42;;;;;;;3.96;100.00;101641.78;4905954;29;20039;-86
2023/03/27 04:37:17;;;;;;;3.58;1.58;;;;;;;4.15;100.00;101647.13;4923134;29;20094;-87
2023/03/27 04:39:43;;;;;;;4.47;2.00;;;;;;;4.19;100.00;101648.13;4909005;29;20036;-86
2023/03/27 04:42:09;;;;;;;3.33;1.17;;;;;;;4.26;100.00;101652.09;4902464;29;20044;-86
2023/03/27 04:44:35;;;;;;;3.63;1.27;;;;;;;4.19;100.00;101648.94;4908820;29;20494;-87
2023/03/27 04:47:01;;;;;;;4.97;1.42;;;;;;;4.20;100.00;101641.47;4919982;29;20369;-86
2023/03/27 04:49:28;;;;;;;4.20;1.52;;;;;;;4.27;100.00;101650.16;4919105;29;20051;-87
2023/03/27 04:51:54;;;;;;;9.10;2.00;;;;;;;4.18;100.00;101649.28;4922760;29;20711;-87
2023/03/27 04:54:21;;;;;;;4.45;2.25;;;;;;;4.17;100.00;101653.16;4925396;29;20032;-87
2023/03/27 04:56:47;;;;;;;2.45;0.98;;;;;;;4.12;100.00;101654.13;4904392;29;20156;-87
2023/03/27 04:59:14;;;;;;;4.28;1.80;;;;;;;4.08;100.00;101658.66;4912136;29;20447;-87
2023/03/27 05:01:40;;;;;;;6.85;1.40;;;;;;;4.06;100.00;101661.72;4915204;29;20055;-87
2023/03/27 05:04:05;;;;;;;5.80;1.30;;;;;;;4.08;100.00;101664.19;4904065;29;20127;-87
2023/03/27 05:06:31;;;;;;;2.97;1.13;;;;;;;4.11;100.00;101658.03;4902888;29;20036;-87
2023/03/27 05:08:57;;;;;;;5.78;1.17;;;;;;;4.11;100.00;101662.75;4914507;29;20042;-87
2023/03/27 05:11:23;;;;;;;5.15;1.27;;;;;;;4.02;100.00;101663.50;4903536;29;20447;-87
2023/03/27 05:13:49;;;;;;;11.00;1.42;;;;;;;4.06;100.00;101666.47;4913920;29;20039;-87
2023/03/27 05:16:16;;;;;;;4.05;1.38;;;;;;;4.01;100.00;101666.59;4918826;29;23599;-87
2023/03/27 05:18:43;;;;;;;2.35;1.10;;;;;;;3.93;100.00;101670.13;4920231;29;20016;-87
2023/03/27 05:21:09;;;;;;;3.17;1.60;;;;;;;4.06;100.00;101683.09;4921097;29;20115;-87
2023/03/27 05:23:34;;;;;;;1.88;0.90;;;;;;;4.05;100.00;101687.00;4914433;29;20039;-87
2023/03/27 05:26:00;;;;;;;2.20;1.73;;;;;;;4.01;100.00;101697.06;4918845;29;20425;-87
2023/03/27 05:28:25;;;;;;;10.38;2.08;;;;;;;3.94;100.00;101696.66;4924833;29;20067;-87
2023/03/27 05:30:51;;;;;;;3.90;1.20;;;;;;;3.94;100.00;101704.97;4916846;29;20127;-87
2023/03/27 05:33:16;;;;;;;4.03;1.20;;;;;;;3.69;100.00;101706.38;4921763;29;20039;-87
2023/03/27 05:35:45;;;;;;;7.03;1.42;;;;;;;3.96;100.00;101722.09;4915937;29;20028;-87
2023/03/27 05:38:12;;;;;;;4.97;1.90;;;;;;;3.64;100.00;101710.06;4892467;29;20035;-87
2023/03/27 05:40:38;;;;;;;7.88;1.67;;;;;;;3.59;100.00;101718.50;4899102;29;20326;-87
2023/03/27 05:43:04;;;;;;;5.40;1.38;;;;;;;3.75;100.00;101705.94;4900926;29;20948;-87
2023/03/27 05:45:30;;;;;;;3.97;1.50;;;;;;;3.32;100.00;101714.63;4917999;29;20513;-87
2023/03/27 05:47:58;;;;;;;5.13;1.60;;;;;;;3.65;100.00;101706.19;4913739;29;20110;-87
2023/03/27 05:50:26;;;;;;;11.13;1.63;;;;;;;3.79;100.00;101723.56;4903566;29;20564;-87
2023/03/27 05:52:59;;;;;;;5.25;1.27;;;;;;;3.90;100.00;101717.81;4917883;29;20059;-86
2023/03/27 05:55:26;;;;;;;5.25;1.42;;;;;;;3.96;100.00;101724.88;4919827;29;20023;-87
2023/03/27 05:57:52;;;;;;;6.97;1.40;;;;;;;3.85;100.00;101715.97;4918589;29;20042;-87
2023/03/27 06:00:22;;;;;;;6.72;2.42;;;;;;;3.46;100.00;101732.06;4901906;29;20055;-87
2023/03/27 06:02:48;;;;;;;9.35;2.13;;;;;;;3.80;100.00;101728.00;4911076;29;20167;-86
2023/03/27 06:05:14;;;;;;;5.15;1.92;;;;;;;3.83;100.00;101730.13;4913714;29;20036;-86
2023/03/27 06:07:40;;;;;;;12.25;2.85;;;;;;;4.78;100.00;101732.00;4912367;29;20036;-80
2023/03/27 06:10:08;;;;;;;16.13;2.90;;;;;;;4.53;100.00;101730.69;4894797;29;20663;-81
2023/03/27 06:12:35;;;;;;;8.88;1.73;;;;;;;4.37;100.00;101743.31;4920179;29;20055;-80
2023/03/27 06:15:03;;;;;;;9.63;2.67;;;;;;;4.37;100.00;101743.31;4928361;29;20035;-80
2023/03/27 06:17:28;;;;;;;3.92;1.83;;;;;;;4.15;100.00;101744.91;4925544;29;20031;-80
2023/03/27 06:19:54;;;;;;;6.95;2.45;;;;;;;3.87;100.00;101736.69;4910764;29;20640;-80
2023/03/27 06:22:19;;;;;;;9.30;2.60;;;;;;;3.97;100.00;101745.91;4908198;29;20036;-80
2023/03/27 06:24:45;;;;;;;6.15;1.42;;;;;;;3.72;100.00;101756.41;4907242;29;20028;-80
2023/03/27 06:27:10;;;;;;;16.73;3.25;;;;;;;3.45;100.00;101769.16;4925375;29;20471;-80
2023/03/27 06:29:36;;;;;;;3.53;1.90;;;;;;;3.70;100.00;101761.44;4925739;29;20044;-80
2023/03/27 06:32:02;;;;;;;5.03;1.67;;;;;;;3.65;100.00;101772.66;4907660;29;20031;-80
2023/03/27 06:34:28;;;;;;;7.82;2.17;;;;;;;3.61;100.00;101779.94;4909207;29;20039;-80
2023/03/27 06:36:53;;;;;;;8.32;3.08;;;;;;;3.64;100.00;101777.34;4927676;29;20977;-80
2023/03/27 06:39:19;;;;;;;3.70;1.83;;;;;;;3.84;100.00;101776.09;4923764;29;20023;-80
2023/03/27 06:41:44;;;;;;;5.47;1.48;;;;;;;3.73;100.00;101780.22;4922543;29;20059;-80
2023/03/27 06:44:10;;;;;;;7.03;1.83;;;;;;;3.61;100.00;101783.50;4923661;29;20035;-78
2023/03/27 06:46:38;;;;;;;10.40;3.35;;;;;;;3.81;100.00;101781.44;4906917;29;20667;-78
2023/03/27 06:49:03;;;;;;;4.18;1.73;;;;;;;3.83;100.00;101782.75;4925987;29;20086;-79
2023/03/27 06:51:29;;;;;;;2.67;1.08;;;;;;;3.69;100.00;101790.28;4924146;29;20494;-78
2023/03/27 06:53:54;;;;;;;5.68;2.10;;;;;;;3.75;100.00;101782.66;4921581;29;20031;-80
2023/03/27 06:56:20;;;;;;;1.85;1.10;;;;;;;3.79;100.00;101800.31;4919040;29;20038;-79
2023/03/27 06:58:45;;;;;;;3.30;1.15;;;;;;;3.84;100.00;101797.44;4908737;29;20027;-80
2023/03/27 07:01:11;;;;;;;2.55;1.10;;;;;;;3.88;100.00;101798.47;4928175;29;20032;-80
2023/03/27 07:03:37;;;;;;;3.10;1.00;;;;;;;3.92;100.00;101802.25;4923808;29;20039;-80
2023/03/27 07:06:03;;;;;;;1.95;1.10;;;;;;;3.89;100.00;101802.84;4909446;29;20086;-80
2023/03/27 07:08:29;;;;;;;3.88;1.58;;;;;;;3.96;100.00;101810.75;4927350;29;20054;-79
2023/03/27 07:10:54;;;;;;;5.43;1.70;;;;;;;4.06;100.00;101808.56;4910422;29;20557;-84
2023/03/27 07:13:20;;;;;;;5.95;1.35;;;;;;;3.79;100.00;101817.72;4921641;29;20103;-83
2023/03/27 07:15:45;;;;;;;5.93;1.35;;;;;;;3.93;100.00;101828.81;4921563;29;20091;-83
2023/03/27 07:18:11;;;;;;;5.40;1.50;;;;;;;3.86;100.00;101822.88;4920334;29;20440;-83
2023/03/27 07:20:36;;;;;;;6.47;1.27;;;;;;;3.94;100.00;101835.16;4909215;29;20106;-83
2023/03/27 07:23:02;;;;;;;5.13;1.38;;;;;;;3.90;100.00;101823.06;4919078;29;20385;-83
2023/03/27 07:25:36;;;;;;;6.55;1.40;;;;;;;3.95;100.00;101834.88;4925862;29;20117;-83
2023/03/27 07:28:11;;;;;;;4.10;1.25;;;;;;;4.01;100.00;101841.13;4909316;29;20046;-83
2023/03/27 07:30:37;;;;;;;4.22;2.67;;;;;;;4.00;100.00;101845.81;4919478;29;20294;-83
2023/03/27 07:33:03;;;;;;;7.88;1.80;;;;;;;3.98;100.00;101839.78;4921849;29;20083;-84
2023/03/27 07:35:30;;;;;;;6.60;1.17;;;;;;;3.99;100.00;101849.75;4927106;29;20389;-84
2023/03/27 07:37:56;;;;;;;4.35;1.27;;;;;;;4.07;100.00;101850.97;4928877;29;20032;-84
2023/03/27 07:40:22;;;;;;;3.55;1.10;;;;;;;4.08;100.00;101852.59;4928393;29;20038;-83
2023/03/27 07:42:49;;;;;;;8.00;1.10;;;;;;;4.00;100.00;101850.56;4932383;29;20032;-84
2023/03/27 07:45:16;;;;;;;2.90;1.00;;;;;;;4.10;100.00;101849.53;4923712;29;20058;-83
2023/03/27 07:47:43;;;;;;;5.25;1.13;;;;;;;4.05;100.00;101850.47;4929031;29;20034;-83
2023/03/27 07:50:10;;;;;;;7.45;1.27;;;;;;;4.10;100.00;101855.88;4928463;29;20047;-85
2023/03/27 07:52:39;;;;;;;3.38;1.20;;;;;;;4.13;100.00;101855.25;4930713;29;20730;-84
2023/03/27 07:55:08;;;;;;;2.88;1.17;;;;;;;4.10;100.00;101855.06;4908023;29;20339;-83
2023/03/27 07:57:38;;;;;;;2.50;1.08;;;;;;;4.17;100.00;101861.81;4926963;29;20032;-83
2023/03/27 08:00:10;;;;;;;4.05;1.63;;;;;;;4.18;100.00;101868.19;4931026;29;20063;-83
2023/03/27 08:02:39;;;;;;;3.25;1.23;;;;;;;4.23;100.00;101860.56;4910524;29;20031;-83
2023/03/27 08:05:07;;;;;;;5.93;1.65;;;;;;;4.19;99.04;101865.09;4913384;29;20051;-83
2023/03/27 08:07:36;;;;;;;3.75;1.15;;;;;;;4.24;100.00;101870.53;4912799;29;20389;-83
2023/03/27 08:10:04;;;;;;;2.70;1.23;;;;;;;4.35;100.00;101873.09;4931130;29;20111;-82
2023/03/27 08:12:31;;;;;;;6.85;1.17;;;;;;;4.34;99.71;101883.34;4916901;29;20043;-82
2023/03/27 08:14:56;;;;;;;8.18;1.98;;;;;;;4.35;96.03;101882.22;4935061;29;20126;-82
2023/03/27 08:17:25;;;;;;;6.65;1.13;;;;;;;4.41;96.65;101883.75;4933676;29;20035;-80
2023/03/27 08:19:51;;;;;;;8.80;1.27;;;;;;;4.46;97.22;101893.91;4929295;29;20054;-81
2023/03/27 08:22:17;;;;;;;5.47;1.00;;;;;;;4.46;98.06;101891.13;4928745;29;20063;-81
2023/03/27 08:24:43;;;;;;;6.22;1.20;;;;;;;4.51;97.94;101891.00;4911566;29;20031;-82
2023/03/27 08:27:08;;;;;;;3.88;1.00;;;;;;;4.56;97.12;101890.09;4936682;29;20031;-82
2023/03/27 08:29:34;;;;;;;4.82;1.02;;;;;;;4.58;94.62;101901.69;4937247;29;20517;-81
2023/03/27 08:31:59;;;;;;;11.18;2.00;;;;;;;4.63;93.30;101891.28;4908687;29;20032;-82
2023/03/27 08:34:26;;;;;;;6.90;1.33;;;;;;;4.77;95.45;101891.25;4930661;29;20106;-81
2023/03/27 08:36:52;;;;;;;3.90;1.35;;;;;;;4.90;94.22;101900.66;4910652;29;20508;-81
2023/03/27 08:39:21;;;;;;;4.65;1.10;;;;;;;5.02;95.90;101897.31;4931481;29;21427;-82
2023/03/27 08:41:54;;;;;;;5.68;1.40;;;;;;;5.13;97.26;101929.22;4932561;29;20035;-81
2023/03/27 08:44:22;;;;;;;3.13;1.00;;;;;;;4.24;100.00;101939.81;4931355;29;20032;-82
2023/03/27 08:46:56;;;;;;;2.20;0.82;;;;;;;3.76;100.00;101945.75;4926242;29;20039;-82
2023/03/27 08:49:26;;;;;;;2.15;0.98;;;;;;;3.67;100.00;101972.50;4932078;29;20087;-81
2023/03/27 08:52:00;;;;;;;1.92;0.80;;;;;;;3.41;100.00;101961.84;4931822;29;20028;-82
2023/03/27 08:54:32;;;;;;;1.48;0.60;;;;;;;3.37;100.00;101962.78;4911913;29;20028;-81
2023/03/27 08:56:57;;;;;;;0.75;0.70;;;;;;;3.31;100.00;101950.97;4930731;29;20162;-82
2023/03/27 08:59:29;;;;;;;1.95;0.60;;;;;;;3.67;100.00;101951.19;4914417;29;20752;-82
2023/03/27 09:02:14;;;;;;;0.50;0.50;;;;;;;3.65;100.00;101942.34;4928852;29;20107;-82
2023/03/27 09:04:48;;;;;;;1.63;0.52;;;;;;;3.97;100.00;101950.91;4913967;29;20040;-82
2023/03/27 09:07:23;;;;;;;1.20;0.70;;;;;;;3.63;100.00;101947.38;4909541;29;20036;-82
2023/03/27 09:10:16;;;;;;;5.95;0.90;;;;;;;4.11;100.00;101960.06;4902934;29;20037;-81
2023/03/27 09:12:41;;;;;;;;;;;;;;;4.17;100.00;101961.56;4914492;29;20028;-81
2023/03/27 09:15:20;;;;;;;1.05;0.85;;;;;;;4.15;100.00;101961.06;4927920;29;20031;-81
2023/03/27 09:18:03;;;;;;;1.08;0.77;;;;;;;4.08;100.00;101964.25;4915521;29;20565;-81
2023/03/27 09:20:41;;;;;;;2.85;0.85;;;;;;;4.11;100.00;101957.28;4927035;29;20059;-82
2023/03/27 09:23:16;;;;;;;2.65;0.85;;;;;;;4.18;100.00;101960.47;4925771;29;20396;-82
2023/03/27 09:25:49;;;;;;;1.98;0.77;;;;;;;4.21;100.00;101961.78;4931707;29;20039;-81
2023/03/27 09:28:28;;;;;;;4.82;1.08;;;;;;;4.42;100.00;101949.13;4930524;29;20542;-81
2023/03/27 09:30:53;;;;;;;2.63;0.90;;;;;;;4.50;100.00;101953.16;4931184;29;20039;-80
2023/03/27 09:33:19;;;;;;;3.85;0.90;;;;;;;4.47;100.00;101954.59;4914877;29;20023;-81
2023/03/27 09:35:45;;;;;;;5.50;1.73;;;;;;;4.60;100.00;101952.94;4923246;29;20052;-80
2023/03/27 09:38:33;;;;;;;6.50;1.58;;;;;;;4.66;100.00;101954.47;4914160;29;20154;-80
2023/03/27 09:41:12;;;;;;;4.65;1.45;;;;;;;4.69;100.00;101956.59;4930325;29;20110;-81
2023/03/27 09:43:43;;;;;;;6.93;1.67;;;;;;;4.85;100.00;101961.81;4931145;29;20581;-82
2023/03/27 09:46:16;;;;;;;3.35;1.10;;;;;;;4.82;100.00;101945.78;4928035;29;20028;-81
2023/03/27 09:48:49;;;;;;;5.47;1.23;;;;;;;5.22;100.00;101943.16;4926417;29;20078;-79
2023/03/27 09:51:41;;;;;;;12.90;1.70;;;;;;;5.43;100.00;101958.16;4903847;29;20494;-80
2023/03/27 09:54:08;;;;;;;4.63;1.98;;;;;;;4.74;100.00;101977.84;4905502;29;22641;-78
2023/03/27 09:56:41;;;;;;;3.90;0.85;;;;;;;4.33;100.00;101977.91;4919526;29;20517;-79
2023/03/27 09:59:19;;;;;;;3.78;1.55;;;;;;;4.35;100.00;101978.44;4908999;29;20028;-79
2023/03/27 10:01:47;;;;;;;3.83;1.17;;;;;;;4.25;100.00;101994.09;4918120;29;20035;-79
2023/03/27 10:04:18;;;;;;;3.30;1.30;;;;;;;4.31;100.00;101988.47;4929051;29;20050;-78
2023/03/27 10:06:55;;;;;;;6.65;1.73;;;;;;;4.32;100.00;101987.34;4922191;29;20410;-79
2023/03/27 10:09:30;;;;;;;5.00;1.20;;;;;;;4.28;100.00;101985.19;4912462;29;20094;-79
2023/03/27 10:12:19;;;;;;;5.70;1.08;;;;;;;4.59;100.00;101979.00;4930903;29;20063;-79
2023/03/27 10:14:47;;;;;;;4.20;0.90;;;;;;;4.70;100.00;101979.59;4893629;29;20039;-79
2023/03/27 10:17:30;;;;;;;3.38;0.90;;;;;;;4.80;100.00;101978.56;4928218;29;20031;-78
2023/03/27 10:20:03;;;;;;;8.18;1.25;;;;;;;4.84;100.00;101963.75;4927974;29;21242;-80
2023/03/27 10:22:33;;;;;;;6.38;1.10;;;;;;;5.01;100.00;101974.19;4930004;29;20192;-80
2023/03/27 10:25:01;;;;;;;5.75;1.85;;;;;;;5.12;100.00;101971.97;4930869;29;20048;-80
2023/03/27 10:27:32;;;;;;;3.70;1.38;;;;;;;5.24;100.00;101979.75;4930177;29;20038;-80
2023/03/27 10:29:58;;;;;;;6.47;1.80;;;;;;;5.24;98.49;101976.97;4931717;29;20524;-80
2023/03/27 10:32:56;;;;;;;6.80;1.75;;;;;;;5.40;100.00;101986.59;4925866;29;20032;-80
2023/03/27 10:35:24;;;;;;;2.60;1.20;;;;;;;5.50;100.00;101978.00;4881909;29;21152;-79
2023/03/27 10:37:51;;;;;;;6.93;1.58;;;;;;;5.65;100.00;101971.22;4928587;29;20107;-80
2023/03/27 10:40:20;;;;;;;3.88;1.33;;;;;;;5.72;100.00;101976.34;4926255;29;20031;-80
2023/03/27 10:42:47;;;;;;;5.60;1.55;;;;;;;5.47;100.00;101995.28;4923173;29;20038;-80
2023/03/27 10:45:20;;;;;;;4.53;1.70;;;;;;;5.08;100.00;101991.25;4923775;29;20475;-80
2023/03/27 10:47:51;;;;;;;;;;;;;;;4.84;100.00;102002.59;4926241;29;20036;-78
2023/03/27 10:50:28;;;;;;;8.20;1.58;;;;;;;4.80;100.00;102020.97;4922480;29;20018;-80
2023/03/27 10:53:02;;;;;;;6.88;1.60;;;;;;;4.91;100.00;102010.47;4905569;29;20039;-80
2023/03/27 10:55:30;;;;;;;6.15;1.27;;;;;;;5.21;100.00;102013.72;4923316;29;20147;-80
2023/03/27 10:58:02;;;;;;;4.03;0.90;;;;;;;5.54;100.00;101999.56;4923853;29;20063;-79
2023/03/27 11:00:40;;;;;;;7.73;1.40;;;;;;;5.57;100.00;102010.06;4920047;29;20032;-80
2023/03/27 11:03:14;;;;;;;9.05;2.20;;;;;;;5.64;100.00;102022.34;4902036;29;20044;-79
2023/03/27 11:05:46;;;;;;;3.63;0.90;;;;;;;5.42;91.59;102016.81;4924052;29;20027;-79
2023/03/27 11:08:20;;;;;;;7.30;1.58;;;;;;;5.66;90.22;102016.50;4911089;29;20035;-80
2023/03/27 11:10:46;;;;;;;5.55;1.25;;;;;;;5.95;88.30;102046.63;4922541;29;20038;-80
2023/03/27 11:13:32;;;;;;;4.07;0.93;;;;;;;5.74;86.31;102031.59;4925931;29;20524;-79
2023/03/27 11:16:10;;;;;;;5.07;1.08;;;;;;;5.84;87.98;102028.53;4909418;29;20038;-80
2023/03/27 11:18:41;;;;;;;5.22;1.13;;;;;;;6.10;84.89;102028.72;4924211;29;20070;-80
2023/03/27 11:21:13;;;;;;;3.10;0.90;;;;;;;6.16;89.76;102033.00;4924706;29;20050;-80
2023/03/27 11:23:54;;;;;;;2.90;0.90;;;;;;;6.02;85.48;102033.06;4922348;29;20036;-78
2023/03/27 11:26:22;;;;;;;1.98;1.13;;;;;;;6.12;86.00;102058.97;4924494;29;20035;-80
2023/03/27 11:29:12;;;;;;;9.30;1.25;;;;;;;6.23;84.41;102044.47;4922429;29;20173;-80
2023/03/27 11:31:44;;;;;;;4.03;1.23;;;;;;;6.13;80.73;102044.75;4924996;29;20118;-80
2023/03/27 11:34:17;;;;;;;3.83;0.80;;;;;;;6.32;83.76;102038.94;4922427;29;20032;-80
2023/03/27 11:36:48;;;;;;;3.65;0.77;;;;;;;6.64;80.85;102051.69;4903313;29;20418;-80
2023/03/27 11:39:30;;;;;;;5.78;1.48;;;;;;;6.70;85.05;102044.84;4920926;29;20063;-79
2023/03/27 11:41:59;;;;;;;3.22;0.80;;;;;;;6.46;87.21;102044.41;4922997;29;20490;-79